Time;durP1;ratioP1;P1;durP2;ratioP2;P2;SDS_P1;SDS_P2;PMS_P1;PMS_P2;Temp;Humidity;BMP_temperature;BMP_pressure;BME280_temperature;BME280_humidity;BME280_pressure;Samples;Min_cycle;Max_cycle;Signal;HPM_P1;HPM_P2
2022/11/08 00:01:58;;;;;;;5.82;3.90;;;;;;;7.80;100.00;100508.47;6273114;28;20045;-74
2022/11/08 00:14:57;;;;;;;5.15;3.40;;;;;;;7.57;100.00;100515.47;6272872;28;20068;-74
2022/11/08 00:17:58;;;;;;;4.47;3.15;;;;;;;7.54;100.00;100517.34;6272719;28;20063;-76
2022/11/08 00:21:01;;;;;;;4.32;3.20;;;;;;;7.52;100.00;100512.22;6270475;28;20055;-74
2022/11/08 00:24:02;;;;;;;;;;;;;;;7.50;100.00;100510.59;6255127;28;20053;-74
2022/11/08 00:27:04;;;;;;;3.20;2.38;;;;;;;7.45;100.00;100508.16;6271235;28;19921;-76
2022/11/08 00:30:06;;;;;;;7.97;3.17;;;;;;;7.44;100.00;100509.94;6270931;28;20128;-76
2022/11/08 00:33:06;;;;;;;5.57;3.15;;;;;;;7.42;100.00;100511.75;6271214;28;20044;-76
2022/11/08 00:36:08;;;;;;;8.73;3.47;;;;;;;7.42;100.00;100511.75;6271378;28;20404;-76
2022/11/08 00:39:11;;;;;;;6.30;3.35;;;;;;;7.38;100.00;100517.97;6254382;28;20044;-76
2022/11/08 00:42:12;;;;;;;9.80;3.13;;;;;;;7.31;100.00;100510.47;6271126;28;20064;-76
2022/11/08 00:45:13;;;;;;;6.13;4.10;;;;;;;7.30;100.00;100514.84;6271021;28;20473;-76
2022/11/08 00:48:13;;;;;;;4.53;3.30;;;;;;;7.31;100.00;100510.47;6272106;28;20123;-76
2022/11/08 00:51:14;;;;;;;7.10;3.80;;;;;;;7.30;100.00;100512.22;6270886;28;20041;-76
2022/11/08 00:54:19;;;;;;;20.98;3.97;;;;;;;7.21;100.00;100512.63;6271924;28;20512;-76
2022/11/08 00:57:20;;;;;;;11.43;3.50;;;;;;;7.19;100.00;100511.84;6271984;28;20110;-74
2022/11/08 01:00:21;;;;;;;5.35;3.28;;;;;;;7.21;100.00;100510.03;6270642;28;20044;-76
2022/11/08 01:03:25;;;;;;;6.20;3.95;;;;;;;7.28;100.00;100516.66;6270615;28;20041;-74
2022/11/08 01:06:26;;;;;;;9.65;4.53;;;;;;;7.22;100.00;100519.47;6270547;28;20041;-74
2022/11/08 01:09:27;;;;;;;3.88;3.13;;;;;;;7.19;100.00;100528.25;6270471;28;20052;-74
2022/11/08 01:12:29;;;;;;;7.22;3.75;;;;;;;7.19;100.00;100530.84;6253588;28;20053;-76
2022/11/08 01:15:35;;;;;;;7.78;3.45;;;;;;;7.18;100.00;100533.47;6271627;28;20045;-76
2022/11/08 01:18:37;;;;;;;5.60;3.15;;;;;;;7.15;100.00;100531.03;6270254;28;20606;-76
2022/11/08 01:21:38;;;;;;;13.57;3.80;;;;;;;7.18;100.00;100523.09;6253670;28;20059;-76
2022/11/08 01:24:38;;;;;;;5.22;2.78;;;;;;;7.23;100.00;100522.03;6271482;28;20397;-76
2022/11/08 01:27:40;;;;;;;5.05;3.45;;;;;;;7.13;100.00;100528.47;6253396;28;20053;-76
2022/11/08 01:30:43;;;;;;;15.17;3.70;;;;;;;7.04;100.00;100527.09;6271369;28;20079;-77
2022/11/08 01:33:44;;;;;;;6.93;3.47;;;;;;;7.07;100.00;100534.75;6253217;28;20296;-76
2022/11/08 01:36:44;;;;;;;7.82;3.85;;;;;;;7.11;100.00;100530.28;6270052;28;20069;-76
2022/11/08 01:39:45;;;;;;;6.65;4.10;;;;;;;7.12;100.00;100533.72;6271147;28;20396;-77
2022/11/08 01:42:46;;;;;;;4.30;3.35;;;;;;;7.08;100.00;100535.59;6270154;28;20057;-74
2022/11/08 01:46:09;;;;;;;6.25;3.85;;;;;;;7.17;100.00;100534.41;6269851;28;20401;-74
2022/11/08 01:49:36;;;;;;;5.20;3.83;;;;;;;7.14;100.00;100524.97;6271105;28;20489;-74
2022/11/08 01:52:45;;;;;;;4.95;3.25;;;;;;;7.28;100.00;100532.22;6269849;28;20041;-74
2022/11/08 01:55:47;;;;;;;5.35;3.45;;;;;;;7.31;100.00;100526.91;6271097;28;20447;-74
2022/11/08 01:58:51;;;;;;;6.10;4.37;;;;;;;7.28;100.00;100523.59;6269821;28;20041;-74
2022/11/08 02:01:52;;;;;;;3.22;2.88;;;;;;;7.21;100.00;100521.25;6269913;28;20051;-74
2022/11/08 02:04:53;;;;;;;4.32;3.40;;;;;;;7.14;100.00;100524.97;6269751;28;20041;-77
2022/11/08 02:08:21;;;;;;;6.55;3.95;;;;;;;7.10;100.00;100513.03;6271091;28;20044;-76
2022/11/08 02:11:22;;;;;;;5.13;3.25;;;;;;;6.97;100.00;100517.84;6270878;28;20485;-76
2022/11/08 02:14:26;;;;;;;5.38;3.53;;;;;;;6.85;100.00;100519.16;6269800;28;20547;-75
2022/11/08 02:17:27;;;;;;;5.13;3.53;;;;;;;6.83;100.00;100518.38;6270713;28;20053;-76
2022/11/08 02:20:28;;;;;;;25.38;3.63;;;;;;;6.87;100.00;100524.28;6271182;28;20040;-76
2022/11/08 02:23:44;;;;;;;5.90;3.33;;;;;;;6.85;100.00;100518.31;6269499;28;20098;-74
2022/11/08 02:26:46;;;;;;;6.30;3.67;;;;;;;6.78;100.00;100515.13;6269648;28;20082;-74
2022/11/08 02:29:50;;;;;;;6.32;3.95;;;;;;;6.75;100.00;100517.81;6270664;28;20041;-74
2022/11/08 02:32:51;;;;;;;5.22;3.55;;;;;;;6.81;100.00;100521.94;6269116;28;20059;-74
2022/11/08 02:35:55;;;;;;;8.95;3.45;;;;;;;6.86;100.00;100517.44;6269431;28;20041;-76
2022/11/08 02:38:57;;;;;;;7.07;2.75;;;;;;;6.95;100.00;100517.06;6269485;28;20412;-77
2022/11/08 02:42:01;;;;;;;10.43;3.53;;;;;;;6.96;100.00;100521.38;6269372;28;20041;-74
2022/11/08 02:45:03;;;;;;;6.70;3.97;;;;;;;6.95;100.00;100518.81;6272555;28;20044;-75
2022/11/08 02:48:04;;;;;;;6.13;3.33;;;;;;;6.95;100.00;100511.88;6274926;28;20558;-76
2022/11/08 02:51:05;;;;;;;4.70;3.60;;;;;;;7.00;100.00;100507.38;6274827;28;20067;-76
2022/11/08 02:54:06;;;;;;;7.43;3.45;;;;;;;6.98;100.00;100510.91;6273736;28;20491;-76
2022/11/08 02:57:07;;;;;;;6.30;3.55;;;;;;;7.02;100.00;100502.09;6274728;28;20136;-76
2022/11/08 03:00:08;;;;;;;5.20;3.50;;;;;;;7.04;100.00;100510.66;6274585;28;20041;-74
2022/11/08 03:03:09;;;;;;;10.75;4.10;;;;;;;6.92;100.00;100511.13;6274757;28;20049;-74
2022/11/08 03:06:10;;;;;;;12.05;3.42;;;;;;;6.84;100.00;100509.69;6273458;28;20044;-74
2022/11/08 03:09:11;;;;;;;4.22;3.30;;;;;;;6.83;100.00;100520.97;6273225;28;20037;-78
2022/11/08 03:12:12;;;;;;;13.80;3.30;;;;;;;6.90;100.00;100521.59;6273203;28;20052;-76
2022/11/08 03:15:13;;;;;;;4.18;3.08;;;;;;;6.96;100.00;100525.69;6274319;28;20041;-74
2022/11/08 03:18:14;;;;;;;6.20;3.50;;;;;;;6.90;100.00;100534.56;6274201;28;20041;-75
2022/11/08 03:21:15;;;;;;;6.32;3.95;;;;;;;6.96;100.00;100531.75;6272841;28;20084;-74
2022/11/08 03:24:15;;;;;;;5.30;3.53;;;;;;;6.86;100.00;100540.78;6272922;28;20041;-74
2022/11/08 03:27:18;;;;;;;16.45;3.50;;;;;;;6.88;100.00;100543.28;6273989;28;20056;-74
2022/11/08 03:30:19;;;;;;;5.25;3.80;;;;;;;6.89;100.00;100537.22;6272258;28;20084;-74
2022/11/08 03:33:20;;;;;;;11.10;3.20;;;;;;;6.85;100.00;100539.06;6272693;28;20061;-74
2022/11/08 03:36:20;;;;;;;26.00;4.47;;;;;;;7.00;100.00;100550.59;6272481;28;20047;-75
2022/11/08 03:39:21;;;;;;;6.63;3.65;;;;;;;7.02;100.00;100556.59;6273646;28;20444;-76
2022/11/08 03:42:22;;;;;;;5.20;3.33;;;;;;;7.00;100.00;100548.00;6273685;28;20401;-76
2022/11/08 03:45:22;;;;;;;8.90;3.08;;;;;;;6.99;100.00;100546.34;6272423;28;20509;-76
2022/11/08 03:48:23;;;;;;;3.97;3.00;;;;;;;6.85;100.00;100542.50;6272117;28;20519;-76
2022/11/08 03:51:24;;;;;;;4.47;3.13;;;;;;;6.77;100.00;100546.28;6272186;28;20040;-76
2022/11/08 03:54:24;;;;;;;4.35;3.08;;;;;;;6.62;100.00;100545.97;6272119;28;20519;-76
2022/11/08 03:57:25;;;;;;;5.90;2.83;;;;;;;6.69;100.00;100538.78;6255251;28;20057;-74
2022/11/08 04:00:27;;;;;;;37.92;3.78;;;;;;;6.72;100.00;100543.88;6273127;28;20040;-75
2022/11/08 04:03:28;;;;;;;;;;;;;;;6.73;100.00;100530.00;6272294;28;20036;-74
2022/11/08 04:06:29;;;;;;;2.90;2.30;;;;;;;6.71;100.00;100524.00;6271753;28;20284;-74
2022/11/08 04:09:29;;;;;;;5.03;3.22;;;;;;;6.69;100.00;100530.16;6271708;28;20041;-74
2022/11/08 04:15:55;;;;;;;22.30;3.40;;;;;;;6.66;100.00;100534.56;6272833;28;20426;-76
2022/11/08 04:22:17;;;;;;;14.80;3.05;;;;;;;6.55;100.00;100543.66;6272865;28;20084;-76
2022/11/08 04:25:18;;;;;;;2.55;2.10;;;;;;;6.55;100.00;100541.91;6271505;28;20041;-76
2022/11/08 04:28:18;;;;;;;4.20;3.17;;;;;;;6.54;100.00;100537.63;6271491;28;20084;-76
2022/11/08 04:31:19;;;;;;;7.07;3.15;;;;;;;6.64;100.00;100538.97;6271066;28;20053;-76
2022/11/08 04:34:20;;;;;;;24.38;3.67;;;;;;;6.73;100.00;100539.53;6271171;28;20402;-73
2022/11/08 04:37:21;;;;;;;17.40;4.03;;;;;;;6.72;100.00;100546.47;6270919;28;20114;-74
2022/11/08 04:40:22;;;;;;;15.35;3.28;;;;;;;6.72;100.00;100549.06;6271053;28;20044;-74
2022/11/08 04:43:22;;;;;;;13.88;2.80;;;;;;;6.86;100.00;100551.16;6272221;28;20069;-77
2022/11/08 04:46:26;;;;;;;9.98;2.67;;;;;;;6.84;100.00;100555.56;6272185;28;20103;-76
2022/11/08 04:49:26;;;;;;;11.10;3.45;;;;;;;6.84;100.00;100555.56;6254063;28;20534;-74
2022/11/08 04:52:27;;;;;;;15.23;3.35;;;;;;;6.93;100.00;100549.16;6254141;28;20053;-74
2022/11/08 04:55:28;;;;;;;13.38;3.13;;;;;;;6.86;100.00;100541.63;6270776;28;20090;-76
2022/11/08 04:58:36;;;;;;;3.40;2.50;;;;;;;6.75;100.00;100561.06;6254131;28;20049;-76
2022/11/08 05:01:37;;;;;;;13.93;3.42;;;;;;;6.74;100.00;100561.97;6271753;28;20048;-76
2022/11/08 05:04:38;;;;;;;14.57;3.28;;;;;;;6.78;100.00;100564.41;6271833;28;20523;-76
2022/11/08 05:07:38;;;;;;;12.05;3.42;;;;;;;6.85;100.00;100565.84;6253571;28;20492;-76
2022/11/08 05:10:39;;;;;;;11.57;2.97;;;;;;;6.93;100.00;100567.31;6270352;28;20496;-75
2022/11/08 05:13:41;;;;;;;10.68;2.85;;;;;;;6.84;100.00;100571.13;6271640;28;20060;-74
2022/11/08 05:16:41;;;;;;;6.88;2.67;;;;;;;6.90;100.00;100578.66;6270463;28;20075;-76
2022/11/08 05:26:21;;;;;;;8.77;3.58;;;;;;;6.84;100.00;100573.72;6271512;28;20374;-74
2022/11/08 05:29:24;;;;;;;9.98;5.72;;;;;;;6.79;100.00;100581.63;6270008;28;20095;-74
2022/11/08 05:32:24;;;;;;;12.40;4.18;;;;;;;6.74;100.00;100578.38;6269954;28;20053;-76
2022/11/08 05:35:25;;;;;;;4.85;3.22;;;;;;;6.82;100.00;100584.13;6271266;28;20060;-77
2022/11/08 05:38:26;;;;;;;4.80;3.35;;;;;;;6.86;100.00;100582.28;6270124;28;20040;-74
2022/11/08 05:41:27;;;;;;;5.30;3.25;;;;;;;6.86;100.00;100577.09;6270024;28;20417;-76
2022/11/08 05:44:28;;;;;;;12.90;4.32;;;;;;;6.87;100.00;100568.38;6270090;28;20103;-77
2022/11/08 05:47:28;;;;;;;6.00;3.83;;;;;;;6.96;100.00;100572.38;6271164;28;20087;-77
2022/11/08 05:50:33;;;;;;;5.88;3.05;;;;;;;7.17;100.00;100573.34;6270962;28;20562;-74
2022/11/08 05:53:34;;;;;;;4.22;3.03;;;;;;;7.07;100.00;100562.47;6271139;28;20045;-74
2022/11/08 05:56:35;;;;;;;8.60;3.08;;;;;;;7.01;100.00;100566.13;6269846;28;20050;-74
2022/11/08 05:59:35;;;;;;;17.38;4.13;;;;;;;6.87;100.00;100581.34;6271006;28;20041;-74
2022/11/08 06:02:36;;;;;;;4.22;3.20;;;;;;;6.84;100.00;100573.72;6269738;28;20052;-74
2022/11/08 06:05:37;;;;;;;10.52;3.08;;;;;;;7.03;100.00;100585.06;6269844;28;20482;-75
2022/11/08 06:08:38;;;;;;;9.75;4.65;;;;;;;7.16;100.00;100590.63;6269669;28;20049;-74
2022/11/08 06:11:39;;;;;;;14.88;3.95;;;;;;;7.15;100.00;100599.34;6269617;28;20420;-74
2022/11/08 06:14:40;;;;;;;4.68;2.92;;;;;;;7.11;100.00;100592.56;6269815;28;20083;-74
2022/11/08 06:17:40;;;;;;;4.00;3.08;;;;;;;7.02;100.00;100598.97;6269687;28;20037;-76
2022/11/08 06:20:41;;;;;;;15.23;2.92;;;;;;;7.01;100.00;100601.59;6273956;28;20098;-77
2022/11/08 06:23:42;;;;;;;4.80;3.17;;;;;;;6.98;100.00;100602.56;6274468;28;20063;-76
2022/11/08 06:26:43;;;;;;;3.95;2.97;;;;;;;7.06;100.00;100595.34;6275545;28;20440;-74
2022/11/08 06:29:46;;;;;;;4.18;3.25;;;;;;;7.20;100.00;100593.97;6275345;28;20037;-74
2022/11/08 06:32:47;;;;;;;12.30;3.55;;;;;;;7.17;100.00;100586.31;6275189;28;20061;-74
2022/11/08 06:35:48;;;;;;;13.00;3.30;;;;;;;7.22;100.00;100590.41;6274000;28;20149;-74
2022/11/08 06:38:53;;;;;;;6.35;3.78;;;;;;;7.26;100.00;100596.31;6273884;28;20049;-74
2022/11/08 06:41:54;;;;;;;6.90;3.53;;;;;;;7.35;100.00;100601.19;6257046;28;20048;-76
2022/11/08 06:44:55;;;;;;;15.45;4.05;;;;;;;7.15;100.00;100601.94;6257156;28;20463;-77
2022/11/08 06:48:01;;;;;;;4.80;3.10;;;;;;;7.15;100.00;100604.53;6274937;28;20037;-77
2022/11/08 06:51:03;;;;;;;4.38;3.63;;;;;;;7.16;100.00;100598.41;6273477;28;20493;-77
2022/11/08 06:54:06;;;;;;;3.88;2.65;;;;;;;7.09;100.00;100607.34;6274852;28;20041;-74
2022/11/08 06:57:06;;;;;;;5.82;3.70;;;;;;;7.06;100.00;100613.50;6274755;28;20405;-77
2022/11/08 07:00:08;;;;;;;3.53;2.88;;;;;;;7.05;100.00;100610.97;6273317;28;20064;-76
2022/11/08 07:03:09;;;;;;;20.40;3.55;;;;;;;7.04;100.00;100604.94;6274471;28;20076;-77
2022/11/08 07:06:10;;;;;;;10.98;2.58;;;;;;;7.18;100.00;100612.19;6273274;28;20076;-76
2022/11/08 07:09:11;;;;;;;13.35;3.65;;;;;;;7.34;100.00;100609.84;6274352;28;20120;-76
2022/11/08 07:12:11;;;;;;;4.18;2.97;;;;;;;7.42;100.00;100615.59;6272937;28;20044;-77
2022/11/08 07:15:13;;;;;;;4.95;3.33;;;;;;;7.37;100.00;100617.53;6273056;28;20045;-76
2022/11/08 07:18:16;;;;;;;11.20;4.15;;;;;;;7.47;100.00;100618.00;6274356;28;20052;-77
2022/11/08 07:21:17;;;;;;;5.07;3.60;;;;;;;7.54;100.00;100618.63;6273996;28;20045;-77
2022/11/08 07:24:18;;;;;;;4.20;3.35;;;;;;;7.62;100.00;100620.00;6274131;28;20067;-77
2022/11/08 07:27:18;;;;;;;12.52;3.55;;;;;;;7.61;100.00;100628.69;6273006;28;20489;-77
2022/11/08 07:30:19;;;;;;;11.18;4.45;;;;;;;7.62;100.00;100627.81;6271943;28;20123;-76
2022/11/08 07:33:20;;;;;;;4.97;3.58;;;;;;;7.73;100.00;100626.53;6272674;28;20041;-75
2022/11/08 07:36:20;;;;;;;14.45;4.25;;;;;;;7.67;100.00;100638.84;6272553;28;20128;-76
2022/11/08 07:39:21;;;;;;;21.05;4.85;;;;;;;7.79;100.00;100634.91;6272417;28;20059;-76
2022/11/08 07:42:22;;;;;;;5.80;4.43;;;;;;;7.75;100.00;100635.94;6272327;28;20459;-74
2022/11/08 07:45:23;;;;;;;8.60;4.88;;;;;;;7.87;100.00;100635.47;6273610;28;20048;-74
2022/11/08 07:48:25;;;;;;;16.45;4.20;;;;;;;7.86;100.00;100636.38;6273475;28;20075;-77
2022/11/08 07:51:26;;;;;;;7.32;4.43;;;;;;;7.85;100.00;100634.66;6272193;28;20048;-77
2022/11/08 07:54:26;;;;;;;24.85;4.78;;;;;;;7.91;100.00;100632.72;6255527;28;20049;-77
2022/11/08 07:57:27;;;;;;;5.45;3.58;;;;;;;8.01;100.00;100634.03;6255444;28;20132;-74
2022/11/08 08:00:30;;;;;;;5.55;3.83;;;;;;;8.04;100.00;100641.72;6272029;28;20141;-75
2022/11/08 08:03:31;;;;;;;4.70;3.67;;;;;;;8.15;100.00;100647.31;6255154;28;20052;-77
2022/11/08 08:06:31;;;;;;;17.95;4.00;;;;;;;8.26;100.00;100633.88;6271907;28;20083;-74
2022/11/08 08:09:35;;;;;;;5.93;3.78;;;;;;;8.31;100.00;100644.91;6271739;28;20048;-75
2022/11/08 08:12:35;;;;;;;16.95;4.30;;;;;;;8.23;100.00;100640.03;6271596;28;20508;-74
2022/11/08 08:15:36;;;;;;;5.57;3.63;;;;;;;8.22;100.00;100646.16;6272786;28;20049;-74
2022/11/08 08:18:37;;;;;;;7.13;4.57;;;;;;;8.18;100.00;100643.75;6272751;28;20045;-74
2022/11/08 08:21:38;;;;;;;5.75;3.88;;;;;;;8.46;100.00;100648.66;6271272;28;20053;-74
2022/11/08 08:24:38;;;;;;;9.15;4.45;;;;;;;8.45;100.00;100645.22;6271316;28;20053;-76
2022/11/08 08:27:39;;;;;;;7.32;4.07;;;;;;;8.62;100.00;100654.03;6272680;28;20116;-74
2022/11/08 08:30:40;;;;;;;11.40;4.95;;;;;;;8.66;100.00;100645.19;6254354;28;20566;-76
2022/11/08 08:33:43;;;;;;;7.57;4.28;;;;;;;8.75;100.00;100649.16;6254522;28;20095;-74
2022/11/08 08:36:44;;;;;;;13.32;4.80;;;;;;;8.57;100.00;100651.66;6272420;28;20455;-74
2022/11/08 08:39:45;;;;;;;8.75;4.25;;;;;;;8.52;100.00;100658.78;6254479;28;20053;-74
2022/11/08 08:42:46;;;;;;;7.25;4.20;;;;;;;8.57;100.00;100656.03;6271309;28;20055;-74
2022/11/08 08:45:47;;;;;;;9.75;5.13;;;;;;;8.58;100.00;100655.09;6272198;28;20034;-74
2022/11/08 08:48:48;;;;;;;9.10;5.88;;;;;;;8.96;100.00;100657.78;6272165;28;20143;-74
2022/11/08 08:51:51;;;;;;;8.13;5.13;;;;;;;9.06;100.00;100653.84;6270651;28;20036;-77
2022/11/08 08:54:52;;;;;;;10.07;5.75;;;;;;;9.18;100.00;100662.84;6272281;28;20037;-77
2022/11/08 08:57:52;;;;;;;8.95;5.55;;;;;;;9.23;100.00;100666.94;6270882;28;20480;-77
2022/11/08 09:00:53;;;;;;;10.32;5.63;;;;;;;9.10;100.00;100665.81;6270721;28;20382;-74
2022/11/08 09:03:54;;;;;;;10.65;5.22;;;;;;;9.22;100.00;100665.22;6271692;28;20072;-74
2022/11/08 09:06:55;;;;;;;8.77;5.25;;;;;;;9.19;100.00;100667.16;6270452;28;20060;-74
2022/11/08 09:09:55;;;;;;;10.15;5.63;;;;;;;9.07;100.00;100666.78;6270835;28;20052;-76
2022/11/08 09:12:56;;;;;;;10.43;6.55;;;;;;;9.20;100.00;100672.28;6270416;28;20517;-76
2022/11/08 09:16:00;;;;;;;9.68;5.65;;;;;;;9.39;100.00;100664.50;6271652;28;20045;-76
2022/11/08 09:19:01;;;;;;;8.30;5.40;;;;;;;9.48;100.00;100673.63;6271572;28;20073;-74
2022/11/08 09:22:01;;;;;;;14.23;6.40;;;;;;;9.76;100.00;100660.16;6270225;28;20412;-77
2022/11/08 09:25:03;;;;;;;11.15;5.40;;;;;;;10.00;100.00;100673.75;6270185;28;20506;-74
2022/11/08 09:28:04;;;;;;;11.38;6.85;;;;;;;10.00;100.00;100676.34;6270063;28;20055;-74
2022/11/08 09:31:08;;;;;;;12.15;7.03;;;;;;;9.89;100.00;100666.44;6269911;28;20056;-74
2022/11/08 09:34:08;;;;;;;12.40;6.72;;;;;;;9.79;100.00;100670.41;6269993;28;20045;-74
2022/11/08 09:37:09;;;;;;;11.32;7.05;;;;;;;9.81;100.00;100671.19;6271211;28;20598;-74
2022/11/08 09:40:19;;;;;;;12.45;8.18;;;;;;;10.56;100.00;100668.41;6271169;28;20116;-74
2022/11/08 09:43:35;;;;;;;10.82;6.43;;;;;;;10.55;100.00;100677.19;6269874;28;20064;-74
2022/11/08 09:46:48;;;;;;;9.32;5.90;;;;;;;10.56;100.00;100676.25;6270049;28;20408;-74
2022/11/08 09:50:13;;;;;;;10.15;5.75;;;;;;;10.47;100.00;100675.78;6271130;28;20047;-76
2022/11/08 09:53:42;;;;;;;9.27;5.32;;;;;;;10.63;100.00;100678.47;6270706;28;20044;-75
2022/11/08 09:56:46;;;;;;;9.70;5.40;;;;;;;10.49;100.00;100676.53;6275118;28;20488;-76
2022/11/08 09:59:51;;;;;;;7.55;5.32;;;;;;;10.40;100.00;100670.97;6258172;28;20508;-74
2022/11/08 10:02:52;;;;;;;10.23;5.95;;;;;;;10.18;100.00;100673.78;6258046;28;20053;-75
2022/11/08 10:06:08;;;;;;;9.38;6.00;;;;;;;10.32;100.00;100670.50;6258155;28;20130;-75
2022/11/08 10:09:33;;;;;;;9.07;5.47;;;;;;;10.46;100.00;100674.13;6274551;28;20049;-74
2022/11/08 10:13:02;;;;;;;8.55;5.68;;;;;;;10.43;100.00;100673.41;6274390;28;20045;-74
2022/11/08 10:16:02;;;;;;;10.98;6.47;;;;;;;10.42;100.00;100671.75;6274522;28;20412;-74
2022/11/08 10:19:15;;;;;;;10.35;6.07;;;;;;;10.46;100.00;100655.84;6274363;28;20065;-74
2022/11/08 10:22:37;;;;;;;13.38;6.15;;;;;;;10.48;100.00;100654.00;6275512;28;20056;-74
2022/11/08 10:25:59;;;;;;;13.97;6.90;;;;;;;10.60;100.00;100651.69;6274221;28;20053;-74
2022/11/08 10:29:13;;;;;;;11.40;6.67;;;;;;;10.32;100.00;100650.47;6274096;28;20294;-75
2022/11/08 10:32:20;;;;;;;12.93;6.95;;;;;;;10.77;100.00;100650.78;6275263;28;20052;-74
2022/11/08 10:35:41;;;;;;;8.80;6.03;;;;;;;11.23;100.00;100651.81;6274003;28;20424;-74
2022/11/08 10:38:51;;;;;;;7.88;5.03;;;;;;;11.10;100.00;100640.34;6274988;28;20535;-74
2022/11/08 10:41:59;;;;;;;9.90;5.38;;;;;;;10.86;100.00;100635.50;6257122;28;20048;-75
2022/11/08 10:44:59;;;;;;;9.70;5.93;;;;;;;11.00;100.00;100631.31;6273707;28;20049;-76
2022/11/08 10:48:00;;;;;;;11.90;6.25;;;;;;;11.20;100.00;100638.94;6273792;28;20045;-76
2022/11/08 10:51:02;;;;;;;11.52;5.70;;;;;;;11.46;100.00;100631.41;6257028;28;20581;-74
2022/11/08 10:54:02;;;;;;;8.52;5.57;;;;;;;11.70;100.00;100629.22;6274682;28;20067;-74
2022/11/08 10:57:03;;;;;;;8.27;5.50;;;;;;;11.57;100.00;100638.66;6273449;28;20053;-74
2022/11/08 11:00:26;;;;;;;10.05;5.10;;;;;;;11.27;100.00;100637.66;6274684;28;20037;-76
2022/11/08 11:03:29;;;;;;;;;;;;;;;11.18;100.00;100637.31;6273843;28;20036;-76
2022/11/08 11:06:32;;;;;;;8.40;4.55;;;;;;;11.00;100.00;100634.78;6272533;28;19924;-76
2022/11/08 11:09:35;;;;;;;8.98;5.22;;;;;;;10.62;100.00;100629.78;6278700;28;20063;-76
2022/11/08 11:12:35;;;;;;;8.75;5.40;;;;;;;10.96;100.00;100635.84;6272179;28;20128;-77
2022/11/08 11:15:39;;;;;;;9.02;5.00;;;;;;;11.47;100.00;100628.72;6274399;28;20047;-77
2022/11/08 11:18:49;;;;;;;10.93;4.90;;;;;;;11.91;100.00;100624.56;6256512;28;20049;-76
2022/11/08 11:22:03;;;;;;;7.95;5.13;;;;;;;11.98;100.00;100627.66;6272605;28;20473;-77
2022/11/08 11:25:12;;;;;;;8.07;4.50;;;;;;;11.73;100.00;100636.03;6272968;28;20045;-77
2022/11/08 11:28:13;;;;;;;8.35;4.75;;;;;;;11.63;100.00;100625.25;6256211;28;20068;-75
2022/11/08 11:31:15;;;;;;;8.23;5.30;;;;;;;11.34;100.00;100626.88;6272801;28;20416;-77
2022/11/08 11:34:16;;;;;;;10.20;5.22;;;;;;;10.94;100.00;100635.09;6274015;28;20118;-77
2022/11/08 11:37:24;;;;;;;8.45;5.90;;;;;;;10.91;100.00;100631.78;6272581;28;20041;-77
2022/11/08 11:40:39;;;;;;;9.68;5.72;;;;;;;11.00;100.00;100628.72;6273077;28;20053;-77
2022/11/08 11:43:46;;;;;;;8.30;5.30;;;;;;;11.04;100.00;100625.84;6272456;28;20049;-77
2022/11/08 11:47:00;;;;;;;10.43;5.90;;;;;;;11.10;100.00;100622.06;6255903;28;20059;-77
2022/11/08 11:50:36;;;;;;;11.57;5.22;;;;;;;11.33;100.00;100620.81;6273770;28;20120;-77
2022/11/08 11:53:37;;;;;;;9.45;5.70;;;;;;;11.34;100.00;100629.47;6264959;28;20067;-75
2022/11/08 11:56:39;;;;;;;9.48;5.80;;;;;;;11.44;100.00;100620.22;6272376;28;20076;-77
2022/11/08 12:00:11;;;;;;;9.30;5.50;;;;;;;11.51;100.00;100634.63;6273489;28;20504;-75
2022/11/08 12:03:44;;;;;;;13.97;6.30;;;;;;;11.63;100.00;100627.84;6272241;28;20041;-75
2022/11/08 12:06:54;;;;;;;10.45;6.55;;;;;;;11.59;100.00;100626.34;6249802;28;20424;-77
2022/11/08 12:10:07;;;;;;;14.20;6.65;;;;;;;11.24;100.00;100632.63;6271759;28;20045;-77
2022/11/08 12:13:08;;;;;;;11.90;6.35;;;;;;;11.05;100.00;100643.19;6271609;28;20124;-75
2022/11/08 12:16:27;;;;;;;12.40;7.28;;;;;;;11.19;100.00;100632.00;6271519;28;20045;-77
2022/11/08 12:20:03;;;;;;;10.30;6.53;;;;;;;10.78;100.00;100631.63;6271616;28;20056;-77
2022/11/08 12:23:35;;;;;;;8.25;5.55;;;;;;;10.97;100.00;100628.88;6271349;28;20068;-77
2022/11/08 12:26:44;;;;;;;10.82;6.43;;;;;;;10.84;100.00;100626.91;6271348;28;20041;-77
2022/11/08 12:30:00;;;;;;;14.43;7.50;;;;;;;10.72;100.00;100621.50;6272654;28;20064;-75
2022/11/08 12:33:13;;;;;;;11.00;6.95;;;;;;;10.24;100.00;100624.75;6254748;28;20057;-77
2022/11/08 12:36:37;;;;;;;14.15;7.90;;;;;;;10.61;100.00;100624.66;6271034;28;20510;-77
2022/11/08 12:39:45;;;;;;;13.57;7.90;;;;;;;10.70;100.00;100629.41;6270989;28;20141;-75
2022/11/08 12:43:01;;;;;;;15.25;8.23;;;;;;;11.03;100.00;100625.91;6271034;28;20072;-75
2022/11/08 13:01:22;;;;;;;14.13;8.82;;;;;;;10.78;100.00;100616.78;6319393;27;20397;-74
2022/11/08 13:04:29;;;;;;;10.98;7.18;;;;;;;10.81;100.00;100614.03;6319030;28;20439;-77
2022/11/08 13:07:42;;;;;;;14.05;8.13;;;;;;;10.93;100.00;100617.72;6300957;28;20072;-73
2022/11/08 13:10:59;;;;;;;15.02;8.30;;;;;;;10.96;100.00;100614.13;6300364;28;20055;-75
2022/11/08 13:14:00;;;;;;;9.75;6.90;;;;;;;11.10;100.00;100611.63;6317233;28;20032;-74
2022/11/08 13:17:07;;;;;;;10.80;7.45;;;;;;;11.04;100.00;100607.56;6316923;28;20052;-75
2022/11/08 13:20:57;;;;;;;17.38;9.32;;;;;;;10.88;100.00;100614.53;6316992;28;20048;-74
2022/11/08 13:24:01;;;;;;;14.73;8.70;;;;;;;10.74;100.00;100611.81;6309170;28;20522;-75
2022/11/08 13:27:37;;;;;;;16.17;8.18;;;;;;;10.67;100.00;100612.13;6300903;28;20044;-77
2022/11/08 13:30:40;;;;;;;12.68;7.82;;;;;;;10.77;100.00;100604.69;6327370;28;20044;-77
2022/11/08 13:34:08;;;;;;;32.65;15.75;;;;;;;10.73;100.00;100605.75;6351292;28;20086;-77
2022/11/08 13:37:33;;;;;;;14.13;8.15;;;;;;;10.93;100.00;100603.84;6317910;28;20500;-75
2022/11/08 13:40:57;;;;;;;12.43;7.90;;;;;;;10.95;100.00;100608.06;6318338;28;20046;-77
2022/11/08 13:43:58;;;;;;;12.35;7.30;;;;;;;10.91;100.00;100598.69;6310991;28;20097;-78
2022/11/08 13:46:59;;;;;;;9.68;6.45;;;;;;;10.99;100.00;100604.34;6316897;28;20036;-77
2022/11/08 13:50:32;;;;;;;10.63;6.50;;;;;;;11.08;100.00;100605.63;6318455;28;20040;-77
2022/11/08 13:53:45;;;;;;;12.63;7.82;;;;;;;10.97;100.00;100608.81;6318594;28;20040;-77
2022/11/08 13:56:48;;;;;;;11.90;7.35;;;;;;;10.95;100.00;100608.06;6317163;28;20036;-74
2022/11/08 13:59:53;;;;;;;14.65;7.47;;;;;;;10.86;100.00;100608.56;6312896;28;20083;-77
2022/11/08 14:02:53;;;;;;;12.95;8.13;;;;;;;10.77;100.00;100614.25;6283151;28;20110;-77
2022/11/08 14:05:58;;;;;;;14.05;7.10;;;;;;;10.76;100.00;100616.03;6300039;28;20082;-75
2022/11/08 14:09:15;;;;;;;11.93;7.97;;;;;;;10.69;100.00;100605.06;6298970;28;20083;-74
2022/11/08 14:12:22;;;;;;;14.15;7.65;;;;;;;10.66;100.00;100605.22;6300530;28;20105;-74
2022/11/08 14:15:54;;;;;;;13.63;7.75;;;;;;;10.58;100.00;100603.94;6299987;28;20090;-77
2022/11/08 14:19:14;;;;;;;14.05;8.07;;;;;;;10.44;100.00;100600.28;6301071;28;20085;-77
2022/11/08 14:22:25;;;;;;;19.85;10.13;;;;;;;10.34;100.00;100603.47;6283129;28;20511;-77
2022/11/08 14:25:32;;;;;;;13.20;8.05;;;;;;;10.27;100.00;100602.88;6299094;28;20421;-74
2022/11/08 14:28:37;;;;;;;13.43;8.55;;;;;;;10.20;100.00;100602.34;6299888;28;20056;-74
2022/11/08 14:31:37;;;;;;;20.15;12.07;;;;;;;10.15;100.00;100601.75;6282025;28;20053;-78
2022/11/08 14:34:38;;;;;;;57.40;26.13;;;;;;;10.07;100.00;100602.13;6299630;28;20123;-77
2022/11/08 14:37:42;;;;;;;164.52;67.50;;;;;;;9.92;100.00;100591.63;6300122;28;20040;-75
2022/11/08 14:40:49;;;;;;;89.38;47.97;;;;;;;9.86;100.00;100593.63;6298434;28;20086;-74
2022/11/08 14:43:53;;;;;;;26.50;15.57;;;;;;;9.91;100.00;100584.72;6299549;28;20051;-75
2022/11/08 14:46:54;;;;;;;17.60;8.65;;;;;;;9.87;100.00;100591.84;6298318;28;20040;-77
2022/11/08 14:50:01;;;;;;;17.15;9.13;;;;;;;9.86;100.00;100584.94;6316037;28;20052;-77
2022/11/08 14:53:32;;;;;;;16.40;8.77;;;;;;;9.82;100.00;100586.88;6333011;28;20048;-77